createdAt,value
2022-12-07T00:01:47.367Z,14.40
2022-12-07T00:04:17.777Z,14.50
2022-12-07T00:06:48.558Z,14.40
2022-12-07T00:09:18.107Z,14.30
2022-12-07T00:11:47.462Z,14.40
2022-12-07T00:14:17.357Z,14.30
2022-12-07T00:16:46.808Z,14.30
2022-12-07T00:19:16.366Z,14.20
2022-12-07T00:21:45.235Z,14.20
2022-12-07T00:24:14.852Z,14.30
2022-12-07T00:26:44.695Z,14.20
2022-12-07T00:29:21.301Z,14.20
2022-12-07T00:31:50.651Z,14.20
2022-12-07T00:34:21.723Z,14.30
2022-12-07T00:36:50.545Z,14.30
2022-12-07T00:39:19.852Z,14.30
2022-12-07T00:41:48.911Z,14.30
2022-12-07T00:44:18.105Z,14.30
2022-12-07T00:46:47.711Z,14.30
2022-12-07T00:49:17.096Z,14.10
2022-12-07T00:51:45.890Z,14.20
2022-12-07T00:54:14.698Z,14.20
2022-12-07T00:56:43.867Z,14.30
2022-12-07T00:59:14.521Z,14.20
2022-12-07T01:01:43.990Z,14.20
2022-12-07T01:04:13.352Z,14.20
2022-12-07T01:06:42.216Z,14.30
2022-12-07T01:09:11.404Z,14.30
2022-12-07T01:11:40.618Z,14.30
2022-12-07T01:14:09.924Z,14.30
2022-12-07T01:16:39.990Z,14.20
2022-12-07T01:19:09.476Z,14.30
2022-12-07T01:21:42.318Z,14.30
2022-12-07T01:24:12.572Z,14.30
2022-12-07T01:26:41.953Z,14.40
2022-12-07T01:29:11.293Z,14.30
2022-12-07T01:31:40.676Z,14.30
2022-12-07T01:34:10.738Z,14.50
2022-12-07T01:36:40.317Z,14.70
2022-12-07T01:39:09.784Z,14.60
2022-12-07T01:41:44.991Z,14.50
2022-12-07T01:44:27.218Z,14.30
2022-12-07T01:46:58.102Z,14.50
2022-12-07T01:49:49.181Z,14.60
2022-12-07T01:52:26.855Z,14.50
2022-12-07T01:54:59.148Z,14.40
2022-12-07T01:57:28.618Z,14.50
2022-12-07T01:59:58.097Z,14.60
2022-12-07T02:03:06.425Z,14.40
2022-12-07T02:05:36.661Z,14.50
2022-12-07T02:08:05.790Z,14.70
2022-12-07T02:10:42.368Z,14.80
2022-12-07T02:13:19.392Z,14.80
2022-12-07T02:16:07.677Z,14.80
2022-12-07T02:19:03.800Z,14.80
2022-12-07T02:21:57.720Z,14.90
2022-12-07T02:24:45.488Z,14.60
2022-12-07T02:27:39.240Z,14.60
2022-12-07T02:30:11.226Z,14.50
2022-12-07T02:32:40.096Z,14.60
2022-12-07T02:35:12.734Z,14.60
2022-12-07T02:37:50.840Z,14.80
2022-12-07T02:40:56.911Z,14.80
2022-12-07T02:43:30.196Z,14.70
2022-12-07T02:46:02.599Z,14.80
2022-12-07T02:48:31.541Z,14.60
2022-12-07T02:51:00.302Z,14.40
2022-12-07T02:53:37.072Z,14.60
2022-12-07T02:56:33.071Z,14.70
2022-12-07T02:59:20.903Z,14.90
2022-12-07T03:02:11.444Z,14.90
2022-12-07T03:04:52.156Z,15.00
2022-12-07T03:07:27.269Z,15.00
2022-12-07T03:10:03.254Z,14.90
2022-12-07T03:13:04.668Z,14.90
2022-12-07T03:15:42.411Z,15.00
2022-12-07T03:18:13.910Z,14.90
2022-12-07T03:20:44.282Z,14.90
2022-12-07T03:23:14.473Z,14.90
2022-12-07T03:25:47.507Z,14.90
2022-12-07T03:28:18.290Z,15.00
2022-12-07T03:30:58.679Z,14.80
2022-12-07T03:33:58.640Z,14.70
2022-12-07T03:36:56.010Z,14.70
2022-12-07T03:39:27.122Z,14.60
2022-12-07T03:41:56.794Z,14.60
2022-12-07T03:44:26.084Z,14.60
2022-12-07T03:46:58.639Z,14.70
2022-12-07T03:49:33.877Z,14.60
2022-12-07T03:52:13.994Z,14.60
2022-12-07T03:55:01.239Z,14.60
2022-12-07T03:57:30.690Z,14.80
2022-12-07T04:00:00.070Z,15.00
2022-12-07T04:02:30.306Z,14.90
2022-12-07T04:04:59.243Z,14.90
2022-12-07T04:07:28.684Z,15.00
2022-12-07T04:09:58.167Z,14.90
2022-12-07T04:12:27.407Z,15.10
2022-12-07T04:14:56.355Z,15.00
2022-12-07T04:17:25.598Z,15.00
2022-12-07T04:19:54.496Z,15.00
2022-12-07T04:22:23.934Z,15.20
2022-12-07T04:24:53.594Z,15.30
2022-12-07T04:27:22.415Z,15.10
2022-12-07T04:29:51.651Z,14.90
2022-12-07T04:32:20.577Z,14.90
2022-12-07T04:34:55.191Z,15.00
2022-12-07T04:37:25.202Z,15.10
2022-12-07T04:39:54.596Z,15.30
2022-12-07T04:42:24.392Z,15.40
2022-12-07T04:44:53.695Z,15.40
2022-12-07T04:47:22.807Z,15.30
2022-12-07T04:49:52.115Z,15.20
2022-12-07T04:52:21.764Z,15.10
2022-12-07T04:54:51.174Z,15.30
2022-12-07T04:57:19.931Z,15.40
2022-12-07T04:59:49.148Z,15.40
2022-12-07T05:02:18.077Z,15.60
2022-12-07T05:04:46.868Z,15.70
2022-12-07T05:07:16.040Z,15.70
2022-12-07T05:09:45.363Z,15.70
2022-12-07T05:12:14.794Z,15.70
2022-12-07T05:14:44.174Z,15.70
2022-12-07T05:17:14.207Z,15.90
2022-12-07T05:19:43.167Z,16.10
2022-12-07T05:22:12.944Z,16.30
2022-12-07T05:24:45.423Z,16.40
2022-12-07T05:27:14.920Z,16.50
2022-12-07T05:29:43.824Z,16.50
2022-12-07T05:32:12.757Z,16.30
2022-12-07T05:34:41.651Z,16.30
2022-12-07T05:37:17.267Z,16.60
2022-12-07T05:39:46.818Z,16.60
2022-12-07T05:42:16.351Z,16.80
2022-12-07T05:44:46.689Z,17.10
2022-12-07T05:47:15.953Z,17.10
2022-12-07T05:49:48.247Z,17.40
2022-12-07T05:52:17.852Z,17.50
2022-12-07T05:54:50.085Z,17.40
2022-12-07T05:57:19.323Z,17.50
2022-12-07T05:59:48.266Z,17.60
2022-12-07T06:02:19.607Z,17.70
2022-12-07T06:04:57.909Z,17.80
2022-12-07T06:07:26.931Z,18.00
2022-12-07T06:09:56.667Z,18.10
2022-12-07T06:12:39.941Z,18.10
2022-12-07T06:15:11.789Z,18.00
2022-12-07T06:17:41.545Z,18.10
2022-12-07T06:20:11.068Z,18.20
2022-12-07T06:22:40.713Z,18.10
2022-12-07T06:25:10.412Z,18.20
2022-12-07T06:27:39.151Z,18.20
2022-12-07T06:30:10.700Z,18.30
2022-12-07T06:32:40.022Z,18.20
2022-12-07T06:35:09.831Z,18.30
2022-12-07T06:37:39.362Z,18.40
2022-12-07T06:40:09.686Z,18.40
2022-12-07T06:42:38.824Z,18.40
2022-12-07T06:45:08.597Z,18.60
2022-12-07T06:47:43.203Z,18.60
2022-12-07T06:50:16.723Z,18.70
2022-12-07T06:52:45.479Z,18.80
2022-12-07T06:55:14.311Z,19.00
2022-12-07T06:57:43.727Z,18.90
2022-12-07T07:00:19.889Z,19.40
2022-12-07T07:02:51.343Z,19.70
2022-12-07T07:05:23.628Z,19.80
2022-12-07T07:08:20.854Z,19.70
2022-12-07T07:10:42.100Z,19.70
2022-12-07T07:13:15.448Z,19.70
2022-12-07T07:15:45.435Z,20.10
2022-12-07T07:18:17.754Z,20.30
2022-12-07T07:20:46.794Z,20.00
2022-12-07T07:23:16.090Z,20.00
2022-12-07T07:25:47.009Z,20.00
2022-12-07T07:28:19.343Z,20.00
2022-12-07T07:30:48.896Z,20.00
2022-12-07T07:33:20.056Z,20.00
2022-12-07T07:35:49.583Z,20.00
2022-12-07T07:38:18.868Z,20.10
2022-12-07T07:40:47.895Z,20.10
2022-12-07T07:43:23.440Z,20.10
2022-12-07T07:45:52.599Z,20.00
2022-12-07T07:48:21.915Z,20.00
2022-12-07T07:50:51.160Z,20.20
2022-12-07T07:53:20.112Z,20.20
2022-12-07T07:55:56.314Z,20.10
2022-12-07T07:58:25.645Z,20.00
2022-12-07T08:00:55.282Z,20.10
2022-12-07T08:03:24.605Z,20.10
2022-12-07T08:06:13.177Z,20.20
2022-12-07T08:08:43.779Z,20.10
2022-12-07T08:11:13.708Z,20.00
2022-12-07T08:13:42.649Z,19.90
2022-12-07T08:16:12.961Z,19.70
2022-12-07T08:18:42.752Z,19.60
2022-12-07T08:21:15.868Z,19.70
2022-12-07T08:23:45.117Z,19.70
2022-12-07T08:26:15.632Z,19.60
2022-12-07T08:28:46.954Z,19.70
2022-12-07T08:31:19.371Z,19.60
2022-12-07T08:33:49.297Z,19.60
2022-12-07T08:36:18.947Z,19.60
2022-12-07T08:39:22.455Z,19.60
2022-12-07T08:41:37.655Z,19.60
2022-12-07T08:44:07.032Z,19.40
2022-12-07T08:46:36.195Z,19.40
2022-12-07T08:49:17.558Z,19.40
2022-12-07T08:51:47.930Z,19.40
2022-12-07T08:54:18.401Z,19.40
2022-12-07T08:56:47.794Z,19.30
2022-12-07T08:59:17.420Z,19.30
2022-12-07T09:01:46.418Z,19.20
2022-12-07T09:04:18.352Z,19.20
2022-12-07T09:06:47.687Z,19.10
2022-12-07T09:09:16.809Z,19.10
2022-12-07T09:11:47.299Z,19.10
2022-12-07T09:14:16.875Z,19.10
2022-12-07T09:16:47.830Z,19.00
2022-12-07T09:19:16.954Z,19.00
2022-12-07T09:21:45.903Z,18.90
2022-12-07T09:24:15.745Z,18.90
2022-12-07T09:26:45.052Z,18.80
2022-12-07T09:29:14.014Z,18.70
2022-12-07T09:31:43.405Z,18.70
2022-12-07T09:34:12.701Z,18.70
2022-12-07T09:36:42.008Z,18.70
2022-12-07T09:39:11.185Z,18.70
2022-12-07T09:41:41.443Z,18.70
2022-12-07T09:44:14.810Z,18.50
2022-12-07T09:46:45.000Z,18.50
2022-12-07T09:49:18.993Z,18.50
2022-12-07T09:51:48.197Z,18.50
2022-12-07T09:54:17.813Z,18.50
2022-12-07T09:56:46.947Z,18.40
2022-12-07T09:59:19.846Z,18.30
2022-12-07T10:01:49.272Z,18.30
2022-12-07T10:04:23.487Z,18.20
2022-12-07T10:06:53.404Z,18.10
2022-12-07T10:09:23.577Z,18.10
2022-12-07T10:12:11.575Z,18.20
2022-12-07T10:17:36.335Z,18.10
2022-12-07T10:20:28.562Z,18.20
2022-12-07T10:23:03.807Z,18.20
2022-12-07T10:25:35.576Z,18.10
2022-12-07T10:28:11.329Z,18.00
2022-12-07T10:31:04.882Z,18.00
2022-12-07T10:33:33.742Z,17.90
2022-12-07T10:36:04.059Z,17.80
2022-12-07T10:38:34.571Z,17.80
2022-12-07T10:41:11.242Z,17.90
2022-12-07T10:43:45.860Z,17.90
2022-12-07T10:46:40.114Z,17.90
2022-12-07T10:49:32.934Z,17.90
2022-12-07T10:52:22.523Z,17.80
2022-12-07T10:55:01.108Z,17.80
2022-12-07T10:57:48.005Z,17.80
2022-12-07T11:00:27.802Z,17.70
2022-12-07T11:03:14.151Z,17.70
2022-12-07T11:06:00.658Z,17.80
2022-12-07T11:09:01.422Z,17.80
2022-12-07T11:11:55.941Z,17.60
2022-12-07T11:14:33.716Z,17.70
2022-12-07T11:17:52.148Z,17.70
2022-12-07T11:20:44.894Z,17.80
2022-12-07T11:23:25.670Z,17.80
2022-12-07T11:26:29.805Z,17.90
2022-12-07T11:29:34.270Z,17.80
2022-12-07T11:32:15.697Z,17.80
2022-12-07T11:35:10.125Z,17.70
2022-12-07T11:40:23.771Z,17.80
2022-12-07T11:43:19.952Z,17.70
2022-12-07T11:45:54.054Z,17.80
2022-12-07T11:48:27.820Z,17.80
2022-12-07T11:50:59.342Z,17.80
2022-12-07T11:53:36.577Z,17.80
2022-12-07T11:56:19.407Z,17.60
2022-12-07T11:59:02.273Z,17.70
2022-12-07T12:01:40.103Z,17.60
2022-12-07T12:04:11.746Z,17.70
2022-12-07T12:06:42.325Z,17.60
2022-12-07T12:15:43.746Z,17.70
2022-12-07T12:18:33.950Z,17.70
2022-12-07T12:21:16.734Z,17.80
2022-12-07T12:24:02.117Z,17.70
2022-12-07T12:26:33.474Z,17.70
2022-12-07T12:29:40.907Z,17.70
2022-12-07T12:32:18.243Z,17.60
2022-12-07T12:35:01.698Z,17.60
2022-12-07T12:37:36.457Z,17.50
2022-12-07T12:40:17.597Z,17.50
2022-12-07T12:42:50.521Z,17.60
2022-12-07T12:45:23.940Z,17.70
2022-12-07T12:47:57.663Z,17.70
2022-12-07T12:50:30.950Z,17.70
2022-12-07T12:53:01.044Z,17.70
2022-12-07T12:56:05.030Z,17.60
2022-12-07T12:58:43.146Z,17.60
2022-12-07T13:01:44.469Z,17.60
2022-12-07T13:04:27.165Z,17.50
2022-12-07T13:06:56.540Z,17.50
2022-12-07T13:09:30.656Z,17.60
2022-12-07T13:12:07.527Z,17.70
2022-12-07T13:14:42.607Z,17.60
2022-12-07T13:17:33.150Z,17.60
2022-12-07T13:20:06.731Z,17.60
2022-12-07T13:22:40.145Z,17.60
2022-12-07T13:25:31.943Z,17.60
2022-12-07T13:28:19.386Z,17.60
2022-12-07T13:31:20.302Z,17.50
2022-12-07T13:33:50.512Z,17.50
2022-12-07T13:36:24.774Z,17.60
2022-12-07T13:38:56.402Z,17.60
2022-12-07T13:41:31.755Z,17.50
2022-12-07T13:44:12.169Z,17.50
2022-12-07T13:47:04.915Z,17.50
2022-12-07T13:49:38.677Z,17.50
2022-12-07T13:52:20.851Z,17.50
2022-12-07T13:54:57.206Z,17.50
2022-12-07T13:57:28.003Z,17.40
2022-12-07T13:59:56.853Z,17.40
2022-12-07T14:02:34.820Z,17.50
2022-12-07T14:05:15.272Z,17.50
2022-12-07T14:07:58.086Z,17.50
2022-12-07T14:10:35.171Z,17.50
2022-12-07T14:13:25.455Z,17.50
2022-12-07T14:15:56.258Z,17.40
2022-12-07T14:18:30.471Z,17.40
2022-12-07T14:21:20.230Z,17.50
2022-12-07T14:24:04.129Z,17.50
2022-12-07T14:26:35.742Z,17.50
2022-12-07T14:29:30.116Z,17.50
2022-12-07T14:32:00.449Z,17.40
2022-12-07T14:34:29.645Z,17.50
2022-12-07T14:36:58.899Z,17.50
2022-12-07T14:39:27.719Z,17.50
2022-12-07T14:41:57.062Z,17.40
2022-12-07T14:44:30.789Z,17.50
2022-12-07T14:49:52.854Z,17.60
2022-12-07T14:55:44.639Z,17.60
2022-12-07T14:58:16.621Z,17.60
2022-12-07T15:00:46.112Z,17.60
2022-12-07T15:03:15.775Z,17.60
2022-12-07T15:05:46.537Z,17.60
2022-12-07T15:08:16.413Z,17.60
2022-12-07T15:10:45.330Z,17.60
2022-12-07T15:13:33.360Z,17.50
2022-12-07T15:16:03.188Z,17.50
2022-12-07T15:18:33.972Z,17.50
2022-12-07T15:21:03.701Z,17.50
2022-12-07T15:23:34.763Z,17.60
2022-12-07T15:26:03.571Z,17.60
2022-12-07T15:28:32.530Z,17.60
2022-12-07T15:31:22.153Z,17.60
2022-12-07T15:33:50.699Z,17.60
2022-12-07T15:36:29.077Z,17.60
2022-12-07T15:39:13.819Z,17.40
2022-12-07T15:41:43.589Z,17.50
2022-12-07T15:44:34.392Z,17.60
2022-12-07T15:47:03.636Z,17.50
2022-12-07T15:49:32.824Z,17.60
2022-12-07T15:52:02.060Z,17.50
2022-12-07T15:54:31.560Z,17.50
2022-12-07T15:57:00.423Z,17.50
2022-12-07T15:59:30.213Z,17.50
2022-12-07T16:01:59.529Z,17.60
2022-12-07T16:04:31.065Z,17.50
2022-12-07T16:07:00.344Z,17.50
2022-12-07T16:09:29.698Z,17.40
2022-12-07T16:11:58.543Z,17.50
2022-12-07T16:14:27.360Z,17.50
2022-12-07T16:16:56.479Z,17.50
2022-12-07T16:19:25.914Z,17.50
2022-12-07T16:21:54.964Z,17.50
2022-12-07T16:24:23.772Z,17.50
2022-12-07T16:26:53.065Z,17.50
2022-12-07T16:29:22.550Z,17.60
2022-12-07T16:31:51.991Z,17.60
2022-12-07T16:34:21.054Z,17.60
2022-12-07T16:37:06.130Z,17.60
2022-12-07T16:39:36.270Z,17.50
2022-12-07T16:42:05.230Z,17.60
2022-12-07T16:44:34.637Z,17.50
2022-12-07T16:47:03.599Z,17.60
2022-12-07T16:49:32.546Z,17.50
2022-12-07T16:52:19.500Z,17.50
2022-12-07T16:54:49.708Z,17.50
2022-12-07T16:57:23.079Z,17.50
2022-12-07T16:59:53.554Z,17.50
2022-12-07T17:02:22.853Z,17.50
2022-12-07T17:04:53.289Z,17.50
2022-12-07T17:07:22.579Z,17.40
2022-12-07T17:09:51.907Z,17.50
2022-12-07T17:12:20.792Z,17.50
2022-12-07T17:15:24.875Z,17.50
2022-12-07T17:18:00.154Z,17.50
2022-12-07T17:20:29.627Z,17.50
2022-12-07T17:22:58.977Z,17.50
2022-12-07T17:25:28.370Z,17.50
2022-12-07T17:27:57.196Z,17.60
2022-12-07T17:30:26.411Z,17.50
2022-12-07T17:32:55.312Z,17.50
2022-12-07T17:35:24.629Z,17.50
2022-12-07T17:37:53.398Z,17.40
2022-12-07T17:40:22.150Z,17.50
2022-12-07T17:42:52.069Z,17.40
2022-12-07T17:45:21.386Z,17.40
2022-12-07T17:47:50.703Z,17.40
2022-12-07T17:50:40.334Z,17.40
2022-12-07T17:53:11.716Z,17.50
2022-12-07T17:56:12.108Z,17.40
2022-12-07T17:58:31.300Z,17.40
2022-12-07T18:01:00.304Z,17.30
2022-12-07T18:03:29.259Z,17.30
2022-12-07T18:05:58.048Z,17.20
2022-12-07T18:08:27.451Z,17.30
2022-12-07T18:11:01.202Z,17.30
2022-12-07T18:13:39.534Z,17.30
2022-12-07T18:16:19.774Z,17.30
2022-12-07T18:18:52.678Z,17.30
2022-12-07T18:21:24.099Z,17.30
2022-12-07T18:23:56.563Z,17.30
2022-12-07T18:26:26.371Z,17.20
2022-12-07T18:28:55.556Z,17.30
2022-12-07T18:31:26.131Z,17.30
2022-12-07T18:33:57.251Z,17.30
2022-12-07T18:36:26.556Z,17.40
2022-12-07T18:38:55.859Z,17.30
2022-12-07T18:41:24.593Z,17.30
2022-12-07T18:43:53.380Z,17.40
2022-12-07T18:46:22.255Z,17.40
2022-12-07T18:48:52.854Z,17.20
2022-12-07T18:51:21.702Z,17.20
2022-12-07T18:53:50.577Z,17.10
2022-12-07T18:56:24.140Z,17.10
2022-12-07T18:59:16.420Z,17.20
2022-12-07T19:01:48.384Z,17.10
2022-12-07T19:04:17.542Z,16.90
2022-12-07T19:06:47.580Z,17.10
2022-12-07T19:09:17.268Z,17.10
2022-12-07T19:11:52.850Z,17.10
2022-12-07T19:14:22.378Z,17.10
2022-12-07T19:16:53.019Z,17.00
2022-12-07T19:19:24.482Z,17.00
2022-12-07T19:21:53.475Z,17.10
2022-12-07T19:24:23.863Z,17.00
2022-12-07T19:26:54.221Z,17.10
2022-12-07T19:29:23.175Z,17.10
2022-12-07T19:31:52.003Z,17.10
2022-12-07T19:34:20.768Z,17.10
2022-12-07T19:36:49.651Z,17.10
2022-12-07T19:39:18.972Z,17.10
2022-12-07T19:41:48.460Z,17.10
2022-12-07T19:44:18.791Z,17.00
2022-12-07T19:46:50.791Z,17.10
2022-12-07T19:49:20.914Z,17.00
2022-12-07T19:51:51.483Z,17.00
2022-12-07T19:54:22.286Z,17.00
2022-12-07T19:56:52.126Z,17.10
2022-12-07T19:59:23.135Z,17.00
2022-12-07T20:01:52.142Z,17.00
2022-12-07T20:04:23.016Z,16.90
2022-12-07T20:06:53.883Z,16.90
2022-12-07T20:09:23.449Z,16.90
2022-12-07T20:12:11.084Z,16.90
2022-12-07T20:14:40.452Z,16.90
2022-12-07T20:17:09.765Z,16.90
2022-12-07T20:19:39.258Z,16.90
2022-12-07T20:22:07.960Z,16.90
2022-12-07T20:24:37.289Z,16.90
2022-12-07T20:27:06.317Z,16.90
2022-12-07T20:29:35.583Z,16.90
2022-12-07T20:32:05.484Z,16.90
2022-12-07T20:34:34.844Z,16.80
2022-12-07T20:37:04.173Z,16.90
2022-12-07T20:39:34.366Z,16.80
2022-12-07T20:42:21.640Z,16.90
2022-12-07T20:44:51.647Z,16.90
2022-12-07T20:47:20.940Z,16.90
2022-12-07T20:49:50.583Z,16.80
2022-12-07T20:52:21.746Z,16.90
2022-12-07T20:54:50.851Z,17.00
2022-12-07T20:57:20.192Z,16.90
2022-12-07T20:59:49.439Z,16.80
2022-12-07T21:02:18.384Z,16.80
2022-12-07T21:04:47.170Z,16.80
2022-12-07T21:07:16.391Z,16.80
2022-12-07T21:09:46.911Z,16.90
2022-12-07T21:12:16.971Z,16.80
2022-12-07T21:14:46.328Z,16.80
2022-12-07T21:17:15.326Z,16.80
2022-12-07T21:19:44.107Z,16.80
2022-12-07T21:22:13.379Z,16.80
2022-12-07T21:24:42.834Z,16.70
2022-12-07T21:27:11.642Z,16.70
2022-12-07T21:29:44.385Z,16.70
2022-12-07T21:32:15.102Z,16.70
2022-12-07T21:34:44.542Z,16.70
2022-12-07T21:37:13.322Z,16.70
2022-12-07T21:39:43.218Z,16.70
2022-12-07T21:42:12.066Z,16.70
2022-12-07T21:44:41.286Z,16.70
2022-12-07T21:47:10.523Z,16.70
2022-12-07T21:49:39.899Z,16.80
2022-12-07T21:52:09.550Z,16.80
2022-12-07T21:54:38.519Z,16.80
2022-12-07T21:57:07.254Z,16.70
2022-12-07T21:59:36.449Z,16.70
2022-12-07T22:02:05.322Z,16.90
2022-12-07T22:04:34.171Z,16.80
2022-12-07T22:07:02.825Z,16.80
2022-12-07T22:09:32.037Z,16.80
2022-12-07T22:12:04.296Z,16.70
2022-12-07T22:14:51.681Z,16.70
2022-12-07T22:17:20.383Z,16.70
2022-12-07T22:19:49.812Z,16.70
2022-12-07T22:22:18.624Z,16.60
2022-12-07T22:24:48.959Z,16.60
2022-12-07T22:27:17.957Z,16.60
2022-12-07T22:29:47.127Z,16.60
2022-12-07T22:32:46.666Z,16.50
2022-12-07T22:35:06.363Z,16.60
2022-12-07T22:37:35.338Z,16.60
2022-12-07T22:40:05.837Z,16.50
2022-12-07T22:42:34.888Z,16.60
2022-12-07T22:45:04.594Z,16.50
2022-12-07T22:47:33.976Z,16.60
2022-12-07T22:50:03.288Z,16.50
2022-12-07T22:52:32.629Z,16.50
2022-12-07T22:55:02.238Z,16.60
2022-12-07T22:57:31.780Z,16.70
2022-12-07T23:00:00.521Z,16.60
2022-12-07T23:02:29.264Z,16.50
2022-12-07T23:04:57.953Z,16.60
2022-12-07T23:07:27.120Z,16.60
2022-12-07T23:09:56.413Z,16.70
2022-12-07T23:12:44.088Z,16.70
2022-12-07T23:15:13.198Z,16.70
2022-12-07T23:17:42.413Z,16.70
2022-12-07T23:20:12.924Z,16.70
2022-12-07T23:22:42.563Z,16.60
2022-12-07T23:25:12.031Z,16.70
2022-12-07T23:27:40.845Z,16.80
2022-12-07T23:30:10.151Z,16.60
2022-12-07T23:32:39.339Z,16.70
2022-12-07T23:35:08.923Z,16.60
2022-12-07T23:37:37.698Z,16.70
2022-12-07T23:40:07.303Z,16.60
2022-12-07T23:42:36.694Z,16.60
2022-12-07T23:45:06.095Z,16.60
2022-12-07T23:47:35.163Z,16.60
2022-12-07T23:50:05.417Z,16.50
2022-12-07T23:52:34.724Z,16.60
2022-12-07T23:55:03.914Z,16.60
2022-12-07T23:57:34.296Z,16.60
